Lemmon, South Dakota
Current Conditions -  °F | °C
As of 12:53 AM on Monday 24 Nov 2014 (Local Time) from KHEI Reporting Station
Broken Clouds Broken Clouds  
Wind Chill:   Ceiling: 900
Heat Index: 16°   Visibility: 10mi
Dew Point: 13°   Wind: 18mph
Humidity: 88%   Direction: 310°NW
Pressure: 29.74"   Gusts: NA
Location:  45.94°N, 102.16°W
Report Text: KHEI 240753Z AUTO 31016KT 10SM BKN009 M09/M11 A2974 RMK AO2 SLP107 T10891106
Loading
Personal Weather Stations






























Interactive Weather Map New forecast layout! Learn more

10-Day Weather Forecast

Advertisements
Track Severe Weather on mobile